New Hill, North Carolina
Current Conditions -  °F | °C
As of 7:55 PM on Tuesday 21 Oct 2014 (Local Time) from KTTA Reporting Station
Scattered Clouds Scattered Clouds  
Wind Chill: 64°   Ceiling: Unl
Heat Index: 64°   Visibility: 10mi
Dew Point: 53°   Wind: 0mph
Humidity: 65%   Direction: NA
Pressure: 29.88"   Gusts: NA
Location:  35.68°N, 78.94°W
Report Text: KTTA 212355Z AUTO 00000KT 10SM SCT100 18/11 A2988 RMK AO2 T01800114 10237 20175
Loading
Personal Weather Stations






























Interactive Weather Map
Tropical Storm Tracking
New forecast layout! Learn more

10-Day Weather Forecast

Advertisements
Track Severe Weather on mobile